Kensett, Iowa
Current Conditions -  °F | °C
As of 1:53 PM on Saturday 25 Oct 2014 (Local Time) from KMCW Reporting Station
Clear Clear  
Wind Chill: 65°   Ceiling: Unl
Heat Index: 65°   Visibility: 10mi
Dew Point: 33°   Wind: 16mph
Humidity: 31%   Direction: 310°NW
Pressure: 30.1"   Gusts: 22mph
Location:  43.35°N, 93.21°W
Report Text: KMCW 251853Z AUTO 31014G19KT 10SM CLR 18/01 A3010 RMK AO2 SLP188 T01830006
Loading
Personal Weather Stations






























Interactive Weather Map
Tropical Storm Tracking
New forecast layout! Learn more

10-Day Weather Forecast

Advertisements
Track Severe Weather on mobile